Time;durP1;ratioP1;P1;durP2;ratioP2;P2;SDS_P1;SDS_P2;PMS_P1;PMS_P2;Temp;Humidity;BMP_temperature;BMP_pressure;BME280_temperature;BME280_humidity;BME280_pressure;Samples;Min_cycle;Max_cycle;Signal;HPM_P1;HPM_P2
2022/11/21 00:00:43;;;;;;;;;5.75;2.00;;;;;9.72;75.08;100750.59;5028449;28;46166;-65
2022/11/21 00:03:10;;;;;;;;;2.00;1.25;;;;;9.72;75.09;100751.44;5027195;28;46202;-64
2022/11/21 00:05:40;;;;;;;;;6.25;2.00;;;;;9.62;75.07;100727.88;5028206;28;45832;-64
2022/11/21 00:08:06;;;;;;;;;2.25;2.00;;;;;9.59;74.84;100739.19;5029045;28;45771;-66
2022/11/21 00:10:32;;;;;;;;;1.50;1.50;;;;;9.67;75.16;100758.41;5031544;28;45555;-67
2022/11/21 00:12:58;;;;;;;;;3.00;1.00;;;;;9.60;75.09;100735.69;5025313;28;45500;-67
2022/11/21 00:15:25;;;;;;;;;4.00;1.75;;;;;9.66;75.06;100748.81;5030722;28;45907;-63
2022/11/21 00:17:51;;;;;;;;;3.00;2.25;;;;;9.54;75.07;100733.94;5031070;28;45599;-68
2022/11/21 00:20:19;;;;;;;;;6.75;1.25;;;;;9.60;74.91;100740.94;5031980;28;45720;-63
2022/11/21 00:22:45;;;;;;;;;1.75;1.75;;;;;9.46;75.57;100745.19;5025774;28;45601;-65
2022/11/21 00:25:12;;;;;;;;;3.00;1.25;;;;;9.49;75.28;100742.59;5029291;28;45602;-66
2022/11/21 00:27:38;;;;;;;;;1.75;1.25;;;;;9.54;75.26;100740.91;5027488;28;45549;-67
2022/11/21 00:30:06;;;;;;;;;3.50;2.00;;;;;9.54;75.19;100728.69;5028660;28;45584;-65
2022/11/21 00:32:32;;;;;;;;;4.00;3.00;;;;;9.52;75.57;100719.09;5027590;28;45330;-66
2022/11/21 00:34:58;;;;;;;;;4.25;2.00;;;;;9.50;75.57;100702.53;5028328;28;45536;-66
2022/11/21 00:37:24;;;;;;;;;4.50;2.00;;;;;9.45;75.39;100701.63;5027396;28;45413;-68
2022/11/21 00:39:50;;;;;;;;;7.00;3.75;;;;;9.37;75.36;100700.69;5032945;28;45504;-68
2022/11/21 00:42:16;;;;;;;;;3.25;1.75;;;;;9.37;75.86;100701.56;5030863;28;46119;-64
2022/11/21 00:44:43;;;;;;;;;3.25;2.00;;;;;9.32;75.71;100690.22;5028639;28;45597;-66
2022/11/21 00:47:09;;;;;;;;;6.00;3.00;;;;;9.24;75.94;100664.03;5027849;28;45961;-68
2022/11/21 00:49:34;;;;;;;;;2.75;1.00;;;;;9.44;75.75;100689.41;5028285;28;46539;-66
2022/11/21 00:52:03;;;;;;;;;5.00;1.50;;;;;9.27;75.56;100661.44;5032436;28;45549;-66
2022/11/21 00:54:29;;;;;;;;;4.50;2.25;;;;;9.50;75.53;100686.84;5032541;28;45915;-64
2022/11/21 00:56:55;;;;;;;;;6.25;1.75;;;;;9.41;75.69;100677.19;5030336;28;46289;-63
2022/11/21 00:59:20;;;;;;;;;4.25;3.25;;;;;9.56;75.60;100692.09;5028536;28;45805;-65
2022/11/21 01:01:46;;;;;;;;;2.00;2.00;;;;;9.58;75.29;100692.97;5032560;28;46129;-64
2022/11/21 01:04:12;;;;;;;;;2.00;2.00;;;;;9.57;75.22;100680.78;5030863;28;46794;-64
2022/11/21 01:06:39;;;;;;;;;4.50;1.00;;;;;9.54;75.58;100678.16;5031900;28;45971;-64
2022/11/21 01:09:05;;;;;;;;;4.75;2.50;;;;;9.53;75.37;100668.53;5033144;28;45433;-67
2022/11/21 01:11:31;;;;;;;;;2.50;2.50;;;;;9.48;75.58;100657.19;5034939;28;46562;-66
2022/11/21 01:13:57;;;;;;;;;6.25;2.00;;;;;9.49;75.78;100674.63;5032430;28;45467;-64
2022/11/21 01:16:25;;;;;;;;;2.00;2.00;;;;;9.46;76.07;100666.78;5031174;28;45717;-66
2022/11/21 01:18:51;;;;;;;;;6.00;3.00;;;;;9.44;76.01;100665.88;5035279;28;45439;-64
2022/11/21 01:21:25;;;;;;;;;5.25;2.00;;;;;9.45;76.00;100655.44;5031876;28;45575;-66
2022/11/21 01:23:52;;;;;;;;;4.00;2.25;;;;;9.51;76.19;100663.28;5029367;28;45619;-64
2022/11/21 01:26:31;;;;;;;;;6.50;3.00;;;;;9.55;76.68;100661.59;5031420;28;45642;-65
2022/11/21 01:28:58;;;;;;;;;2.00;2.00;;;;;9.44;75.74;100627.53;5032605;28;45571;-65
2022/11/21 01:31:28;;;;;;;;;6.50;3.25;;;;;9.29;75.71;100603.94;5034831;28;45553;-66
2022/11/21 01:33:57;;;;;;;;;4.50;3.00;;;;;9.54;75.82;100652.88;5034593;28;45540;-66
2022/11/21 01:36:26;;;;;;;;;7.25;4.00;;;;;9.51;75.78;100645.00;5029579;28;45406;-64
2022/11/21 01:38:54;;;;;;;;;2.00;2.00;;;;;9.51;76.00;100647.59;5034297;28;45500;-63
2022/11/21 01:41:27;;;;;;;;;5.25;3.50;;;;;9.56;76.11;100637.19;5031077;28;45975;-64
2022/11/21 01:43:53;;;;;;;;;2.00;1.00;;;;;9.55;76.17;100636.31;5029194;28;45771;-63
2022/11/21 01:46:22;;;;;;;;;3.50;2.00;;;;;9.51;76.19;100626.69;5030929;28;45822;-65
2022/11/21 01:48:54;;;;;;;;;3.00;3.00;;;;;9.55;76.07;100632.81;5031969;28;45508;-66
2022/11/21 01:51:30;;;;;;;;;5.00;3.00;;;;;9.51;76.22;100620.59;5030136;28;45651;-66
2022/11/21 01:54:12;;;;;;;;;2.25;2.25;;;;;9.49;75.86;100618.00;5032112;28;45329;-66
2022/11/21 01:56:48;;;;;;;;;3.50;2.00;;;;;9.47;76.25;100605.78;5035464;28;46294;-68
2022/11/21 01:59:21;;;;;;;;;3.00;2.00;;;;;9.47;76.18;100593.59;5032311;28;45594;-66
2022/11/21 02:01:53;;;;;;;;;4.75;3.00;;;;;9.43;76.36;100594.44;5028931;28;48211;-64
2022/11/21 02:04:20;;;;;;;;;2.00;2.00;;;;;9.41;76.34;100590.06;5033923;28;45438;-67
2022/11/21 02:06:46;;;;;;;;;3.00;1.75;;;;;9.44;76.50;100604.00;5031296;28;45860;-66
2022/11/21 02:09:11;;;;;;;;;5.50;2.00;;;;;9.42;76.17;100608.38;5032125;28;45908;-65
2022/11/21 02:11:43;;;;;;;;;2.00;2.00;;;;;9.24;75.96;100576.91;5031179;28;47945;-65
2022/11/21 02:14:10;;;;;;;;;4.00;3.00;;;;;9.24;76.56;100574.31;5030655;28;45546;-67
2022/11/21 02:16:36;;;;;;;;;3.00;1.00;;;;;9.29;75.97;100583.91;5033056;28;45465;-65
2022/11/21 02:19:18;;;;;;;;;5.00;3.25;;;;;9.36;76.26;100597.88;5034381;28;45458;-67
2022/11/21 02:21:54;;;;;;;;;2.25;2.25;;;;;9.32;76.32;100603.94;5027898;28;45485;-65
2022/11/21 02:24:43;;;;;;;;;2.50;2.00;;;;;9.34;76.67;100595.25;5030252;28;45883;-66
2022/11/21 02:27:15;;;;;;;;;1.25;0.75;;;;;9.31;76.39;100581.31;5030021;28;45394;-63
2022/11/21 02:29:42;;;;;;;;;10.75;4.00;;;;;9.18;76.00;100551.63;5032798;28;45980;-64
2022/11/21 02:32:08;;;;;;;;;3.00;3.00;;;;;9.29;76.06;100557.78;5032106;28;46734;-66
2022/11/21 02:34:36;;;;;;;;;4.00;2.25;;;;;9.34;76.25;100576.09;5028983;28;46529;-65
2022/11/21 02:37:02;;;;;;;;;3.00;1.75;;;;;9.22;76.33;100550.78;5030557;28;45668;-63
2022/11/21 02:39:39;;;;;;;;;8.25;2.25;;;;;9.23;76.09;100556.84;5032163;28;45529;-63
2022/11/21 02:42:13;;;;;;;;;6.25;3.25;;;;;9.24;76.28;100564.72;5033231;28;46585;-66
2022/11/21 02:44:54;;;;;;;;;5.00;3.00;;;;;9.25;76.44;100570.81;5035048;28;45600;-65
2022/11/21 02:47:22;;;;;;;;;3.50;1.25;;;;;9.21;76.94;100563.84;5033753;28;45772;-65
2022/11/21 02:50:09;;;;;;;;;2.00;2.00;;;;;9.21;76.57;100558.63;5036638;28;45851;-64
2022/11/21 02:52:34;;;;;;;;;2.25;2.00;;;;;9.21;76.60;100556.88;5036483;28;46669;-64
2022/11/21 02:55:00;;;;;;;;;8.50;3.75;;;;;9.23;76.59;100559.47;5029422;28;45492;-66
2022/11/21 02:57:25;;;;;;;;;3.75;3.00;;;;;9.21;76.54;100556.88;5032158;28;45519;-67
2022/11/21 02:59:51;;;;;;;;;4.00;2.25;;;;;9.21;76.57;100550.78;5031204;28;45735;-64
2022/11/21 03:02:17;;;;;;;;;2.25;1.75;;;;;9.23;76.37;100543.78;5033403;28;45857;-64
2022/11/21 03:04:42;;;;;;;;;2.00;2.00;;;;;9.22;76.51;100547.28;5033180;28;45610;-67
2022/11/21 03:07:08;;;;;;;;;6.25;2.00;;;;;9.04;76.75;100511.47;5033595;28;45948;-65
2022/11/21 03:09:34;;;;;;;;;4.25;3.00;;;;;9.18;76.74;100546.38;5032495;28;45567;-62
2022/11/21 03:12:08;;;;;;;;;3.75;2.25;;;;;8.98;76.63;100509.72;5031037;28;46232;-65
2022/11/21 03:14:34;;;;;;;;;6.25;3.00;;;;;9.07;76.83;100525.44;5029841;28;46014;-65
2022/11/21 03:17:00;;;;;;;;;5.00;4.00;;;;;9.16;76.72;100534.19;5033409;28;45425;-65
2022/11/21 03:19:25;;;;;;;;;5.25;3.00;;;;;9.12;76.69;100525.47;5033203;28;45474;-64
2022/11/21 03:21:51;;;;;;;;;4.00;2.25;;;;;9.13;76.52;100525.50;5032874;28;45649;-64
2022/11/21 03:24:16;;;;;;;;;5.00;3.50;;;;;9.04;77.03;100515.00;5032634;28;45524;-66
2022/11/21 03:26:42;;;;;;;;;8.50;5.75;;;;;8.97;76.97;100504.47;5032188;28;45596;-70
2022/11/21 03:29:08;;;;;;;;;5.00;5.00;;;;;8.92;77.62;100499.22;5032252;28;45473;-67
2022/11/21 03:31:33;;;;;;;;;5.75;3.25;;;;;8.93;77.50;100495.78;5031611;28;46675;-67
2022/11/21 03:33:59;;;;;;;;;5.00;3.00;;;;;8.95;77.40;100493.19;5032016;28;45374;-68
2022/11/21 03:36:24;;;;;;;;;9.50;4.50;;;;;8.92;77.49;100486.19;5030805;28;45490;-68
2022/11/21 03:38:50;;;;;;;;;5.75;4.00;;;;;8.83;77.77;100473.09;5032410;28;45658;-67
2022/11/21 03:41:31;;;;;;;;;8.50;4.25;;;;;8.77;78.25;100471.31;5032155;28;45801;-68
2022/11/21 03:44:01;;;;;;;;;8.00;5.25;;;;;8.73;78.18;100473.91;5031545;28;45662;-64
2022/11/21 03:46:28;;;;;;;;;12.25;6.00;;;;;8.64;78.90;100472.13;5029991;28;45607;-68
2022/11/21 03:48:54;;;;;;;;;4.00;4.00;;;;;8.56;79.02;100461.63;5030173;28;45678;-67
2022/11/21 03:51:20;;;;;;;;;6.50;4.75;;;;;8.61;78.91;100472.09;5010929;28;47741;-67
2022/11/21 03:53:46;;;;;;;;;5.50;4.00;;;;;8.63;78.78;100457.31;5031497;28;45448;-66
2022/11/21 03:56:11;;;;;;;;;8.25;4.25;;;;;8.64;78.98;100469.53;5031433;28;45717;-67
2022/11/21 03:58:37;;;;;;;;;6.00;4.50;;;;;8.66;78.88;100463.44;5030338;28;45944;-68
2022/11/21 04:01:03;;;;;;;;;10.75;6.25;;;;;8.58;78.92;100441.63;5031346;28;45914;-70
2022/11/21 04:03:28;;;;;;;;;6.75;4.50;;;;;8.43;79.35;100431.09;5031128;28;46091;-68
2022/11/21 04:09:25;;;;;;;;;11.00;5.00;;;;;8.48;79.70;100426.78;4989206;28;45719;-68
2022/11/21 04:11:51;;;;;;;;;9.25;5.00;;;;;8.45;79.62;100425.03;5029949;28;46055;-66
2022/11/21 04:14:16;;;;;;;;;8.25;6.25;;;;;8.29;79.95;100410.13;5030237;28;45782;-70
2022/11/21 04:16:42;;;;;;;;;7.00;5.00;;;;;8.07;80.31;100377.81;5031146;28;45484;-66
2022/11/21 04:19:07;;;;;;;;;10.00;7.25;;;;;8.06;80.22;100391.69;5031410;28;45663;-64
2022/11/21 04:21:33;;;;;;;;;12.25;9.50;;;;;7.96;80.64;100382.94;5033562;28;45787;-64
2022/11/21 04:23:58;;;;;;;;;10.50;6.50;;;;;8.00;80.81;100409.94;5031473;28;45553;-64
2022/11/21 04:26:24;;;;;;;;;9.50;7.00;;;;;7.78;81.46;100382.78;5030626;28;45566;-65
2022/11/21 04:28:50;;;;;;;;;6.25;6.25;;;;;7.82;81.31;100380.22;5030924;28;45409;-65
2022/11/21 04:31:15;;;;;;;;;12.75;6.25;;;;;7.92;81.55;100402.03;5032120;28;46785;-65
2022/11/21 04:33:41;;;;;;;;;6.50;5.25;;;;;7.89;81.47;100394.19;5032285;28;45560;-65
2022/11/21 04:36:07;;;;;;;;;9.75;6.50;;;;;7.87;81.54;100388.09;5036513;28;45762;-65
2022/11/21 04:38:33;;;;;;;;;7.75;7.00;;;;;7.79;81.85;100377.59;5035217;28;45434;-64
2022/11/21 04:40:58;;;;;;;;;10.75;6.25;;;;;7.72;82.11;100361.91;5034863;28;45392;-64
2022/11/21 04:43:24;;;;;;;;;6.75;6.50;;;;;7.75;82.19;100367.13;5038790;28;45444;-65
2022/11/21 04:45:55;;;;;;;;;9.00;7.25;;;;;7.64;82.17;100351.44;5038889;28;45402;-65
2022/11/21 04:48:21;;;;;;;;;7.00;6.75;;;;;7.76;82.34;100374.97;5034743;28;45401;-64
2022/11/21 04:50:47;;;;;;;;;11.75;8.00;;;;;7.78;82.21;100367.16;5034432;28;46625;-64
2022/11/21 04:53:12;;;;;;;;;10.25;7.00;;;;;7.70;82.51;100361.03;5033786;28;45494;-64
2022/11/21 04:55:38;;;;;;;;;10.25;7.25;;;;;7.73;82.56;100358.44;5038435;28;45409;-64
2022/11/21 04:58:04;;;;;;;;;8.00;5.50;;;;;7.62;82.69;100335.78;5038577;28;45473;-65
2022/11/21 05:00:29;;;;;;;;;12.75;8.25;;;;;7.73;82.14;100348.88;5035083;28;45373;-65
2022/11/21 05:03:01;;;;;;;;;7.50;5.25;;;;;7.71;82.49;100332.38;5031607;28;45364;-66
2022/11/21 05:05:28;;;;;;;;;7.50;6.25;;;;;7.71;82.59;100334.97;5034324;28;45814;-68
2022/11/21 05:07:54;;;;;;;;;8.50;8.00;;;;;7.62;82.28;100317.53;5033568;28;45417;-65
2022/11/21 05:10:19;;;;;;;;;19.25;10.50;;;;;7.65;82.68;100327.97;5033931;28;46131;-64
2022/11/21 05:15:29;;;;;;;;;11.00;9.00;;;;;7.66;82.75;100310.59;5036504;28;45310;-65
2022/11/21 05:17:57;;;;;;;;;14.00;11.25;;;;;7.64;82.49;100307.13;5034828;28;45373;-69
2022/11/21 05:20:23;;;;;;;;;14.25;10.50;;;;;7.57;83.10;100301.00;5033261;28;45537;-70
2022/11/21 05:22:50;;;;;;;;;10.50;8.25;;;;;7.57;82.88;100306.19;5034387;28;45488;-71
2022/11/21 05:25:16;;;;;;;;;12.75;8.75;;;;;7.51;83.13;100297.47;5034539;28;45520;-68
2022/11/21 05:27:42;;;;;;;;;12.75;9.75;;;;;7.56;82.84;100304.44;5034064;28;45685;-64
2022/11/21 05:30:08;;;;;;;;;12.75;8.50;;;;;7.54;83.16;100311.38;5032589;28;46282;-65
2022/11/21 05:32:33;;;;;;;;;11.25;9.25;;;;;7.56;82.76;100317.47;5036809;28;45452;-65
2022/11/21 05:34:59;;;;;;;;;14.50;10.00;;;;;7.59;82.54;100319.22;5033400;28;45343;-69
2022/11/21 05:37:24;;;;;;;;;12.75;11.50;;;;;7.55;83.03;100305.31;5033970;28;45283;-64
2022/11/21 05:39:56;;;;;;;;;14.75;8.00;;;;;7.57;83.00;100295.78;5034256;28;47124;-66
2022/11/21 05:43:44;;;;;;;;;13.00;10.00;;;;;7.71;82.71;100308.00;5029768;28;45641;-64
2022/11/21 05:45:08;;;;;;;;;16.75;9.75;;;;;7.78;82.45;100304.59;5031536;28;45550;-66
2022/11/21 05:47:33;;;;;;;;;14.00;10.50;;;;;7.80;82.53;100297.66;5032994;28;45500;-64
2022/11/21 05:49:59;;;;;;;;;14.75;8.00;;;;;7.78;82.34;100283.72;5033524;28;46249;-66
2022/11/21 05:52:24;;;;;;;;;10.00;5.50;;;;;7.86;82.01;100271.63;5033721;28;45421;-62
2022/11/21 05:54:50;;;;;;;;;9.00;3.00;;;;;7.89;81.97;100250.78;5033717;28;45655;-64
2022/11/21 05:57:16;;;;;;;;;5.75;5.00;;;;;8.05;81.58;100265.63;5033848;28;45382;-65
2022/11/21 05:59:41;;;;;;;;;8.00;5.00;;;;;8.06;81.57;100261.28;5032237;28;46180;-65
2022/11/21 06:04:55;;;;;;;;;7.25;7.25;;;;;8.03;81.40;100243.88;5033711;28;45371;-64
2022/11/21 06:07:20;;;;;;;;;8.50;7.50;;;;;8.16;81.06;100241.31;5032246;28;45430;-66
2022/11/21 06:09:45;;;;;;;;;9.75;6.75;;;;;8.26;80.82;100248.34;5033825;28;45848;-64
2022/11/21 06:12:11;;;;;;;;;7.50;6.25;;;;;8.29;80.54;100238.78;5033358;28;45602;-64
2022/11/21 06:14:37;;;;;;;;;7.25;6.75;;;;;8.26;80.42;100227.47;5033216;28;45893;-64
2022/11/21 06:17:02;;;;;;;;;18.75;10.50;;;;;8.26;80.27;100228.34;5030630;28;45669;-66
2022/11/21 06:19:28;;;;;;;;;12.25;10.00;;;;;8.14;80.65;100219.56;5029908;28;45349;-67
2022/11/21 06:21:53;;;;;;;;;11.00;10.50;;;;;7.92;80.90;100189.94;5032777;28;45779;-66
2022/11/21 06:24:18;;;;;;;;;14.25;10.75;;;;;8.02;81.02;100196.91;5035448;28;45807;-64
2022/11/21 06:26:44;;;;;;;;;13.50;8.50;;;;;7.95;81.12;100202.97;5036742;28;45575;-65
2022/11/21 06:29:10;;;;;;;;;10.00;10.00;;;;;7.92;81.55;100214.28;5033060;28;46055;-67
2022/11/21 06:31:36;;;;;;;;;14.00;11.00;;;;;7.93;81.45;100203.00;5031254;28;45482;-65
2022/11/21 06:34:02;;;;;;;;;14.25;12.75;;;;;7.90;81.17;100197.78;5033713;28;45600;-65
2022/11/21 06:36:28;;;;;;;;;14.00;10.00;;;;;7.90;81.36;100200.38;5038871;28;45627;-68
2022/11/21 06:38:58;;;;;;;;;12.50;11.50;;;;;7.93;81.50;100191.69;5033823;28;45397;-67
2022/11/21 06:41:25;;;;;;;;;11.75;9.75;;;;;7.73;81.59;100174.22;5030126;28;45705;-65
2022/11/21 06:43:52;;;;;;;;;17.75;13.25;;;;;7.77;81.98;100188.16;5031064;28;45484;-65
2022/11/21 06:46:17;;;;;;;;;23.50;17.75;;;;;7.75;82.02;100185.53;5032658;28;46068;-64
2022/11/21 06:49:06;;;;;;;;;14.75;11.00;;;;;7.80;81.79;100181.19;5029703;28;46697;-66
2022/11/21 06:51:40;;;;;;;;;14.25;12.75;;;;;7.85;81.90;100191.66;5031629;28;45520;-69
2022/11/21 06:54:06;;;;;;;;;15.50;13.50;;;;;7.77;81.75;100178.59;5031291;28;45398;-69
2022/11/21 06:56:31;;;;;;;;;16.50;15.50;;;;;7.79;81.84;100176.00;5031842;28;45527;-66
2022/11/21 06:58:57;;;;;;;;;20.75;17.75;;;;;7.68;81.81;100168.09;5030938;28;45846;-65
2022/11/21 07:01:24;;;;;;;;;20.75;17.50;;;;;7.64;81.90;100146.38;5034168;28;45487;-66
2022/11/21 07:03:50;;;;;;;;;27.00;18.75;;;;;7.51;81.84;100131.53;5034900;28;45533;-69
2022/11/21 07:06:16;;;;;;;;;22.25;14.50;;;;;7.47;81.78;100113.28;5034938;28;45620;-67
2022/11/21 07:08:41;;;;;;;;;23.25;19.75;;;;;7.53;82.26;100126.34;5035427;28;46045;-68
2022/11/21 07:11:14;;;;;;;;;19.00;15.00;;;;;7.22;82.33;100059.34;5032252;28;45716;-71
2022/11/21 07:13:45;;;;;;;;;19.50;15.00;;;;;7.22;82.33;100048.91;5031196;28;45485;-67
2022/11/21 07:16:13;;;;;;;;;20.75;14.25;;;;;7.60;82.14;100107.28;5036224;28;45604;-66
2022/11/21 07:18:43;;;;;;;;;20.25;14.50;;;;;7.33;81.89;100066.31;5035525;28;46620;-66
2022/11/21 07:21:09;;;;;;;;;21.50;15.75;;;;;7.40;81.97;100060.25;5036312;28;45577;-69
2022/11/21 07:23:35;;;;;;;;;21.25;15.75;;;;;7.55;82.08;100083.78;5035630;28;45585;-65
2022/11/21 07:26:03;;;;;;;;;24.50;18.00;;;;;7.42;81.74;100058.53;5036256;28;45445;-64
2022/11/21 07:28:33;;;;;;;;;22.00;18.50;;;;;7.29;81.78;100049.81;5033056;28;46454;-66
2022/11/21 07:31:02;;;;;;;;;25.00;18.75;;;;;7.23;82.10;100035.00;5030467;28;45470;-65
2022/11/21 07:33:28;;;;;;;;;20.50;18.00;;;;;7.12;81.95;100009.78;5031954;28;45864;-66
2022/11/21 07:35:57;;;;;;;;;27.00;19.75;;;;;7.25;82.14;100028.97;5032085;28;45480;-65
2022/11/21 07:38:24;;;;;;;;;24.75;19.50;;;;;7.40;82.21;100055.94;5030253;28;47661;-65
2022/11/21 07:40:50;;;;;;;;;19.00;16.00;;;;;7.27;81.81;100037.66;5031599;28;45520;-64
2022/11/21 07:43:16;;;;;;;;;25.25;18.50;;;;;7.32;82.42;100055.03;5031807;28;45501;-67
2022/11/21 07:45:41;;;;;;;;;24.00;19.50;;;;;7.29;82.66;100055.03;5031786;28;45601;-65
2022/11/21 07:48:07;;;;;;;;;18.00;16.00;;;;;7.27;82.59;100051.53;5031164;28;46321;-68
2022/11/21 07:50:42;;;;;;;;;34.25;22.00;;;;;7.25;82.13;100040.25;5031234;28;45910;-64
2022/11/21 07:53:10;;;;;;;;;25.00;21.50;;;;;7.34;82.78;100047.22;5034407;28;45474;-66
2022/11/21 07:55:36;;;;;;;;;29.00;22.00;;;;;7.15;82.57;99997.66;5035643;28;45460;-66
2022/11/21 07:58:06;;;;;;;;;26.50;22.50;;;;;7.36;82.22;100022.06;5033963;28;45665;-65
2022/11/21 08:00:34;;;;;;;;;23.00;20.75;;;;;7.36;82.56;100009.03;5034947;28;45564;-65
2022/11/21 08:03:07;;;;;;;;;35.75;28.25;;;;;7.31;82.58;99992.50;5035531;28;45434;-65
2022/11/21 08:05:37;;;;;;;;;29.50;26.25;;;;;7.28;82.17;99966.44;5035643;28;45751;-65
2022/11/21 08:08:02;;;;;;;;;34.25;27.00;;;;;7.28;82.37;99975.13;5035166;28;45421;-66
2022/11/21 08:10:28;;;;;;;;;28.25;25.50;;;;;7.28;82.82;99971.66;5035207;28;45474;-66
2022/11/21 08:12:54;;;;;;;;;32.50;24.25;;;;;6.93;83.75;99928.16;5032316;28;45905;-64
2022/11/21 08:15:20;;;;;;;;;26.25;23.25;;;;;7.08;83.90;99962.03;5031119;28;45618;-64
2022/11/21 08:17:45;;;;;;;;;27.75;24.25;;;;;7.19;83.63;99975.97;5030609;28;45795;-65
2022/11/21 08:20:11;;;;;;;;;25.50;19.25;;;;;7.22;83.25;99976.00;5030030;28;45559;-65
2022/11/21 08:22:40;;;;;;;;;22.75;21.00;;;;;7.12;83.54;99963.81;5031229;28;45674;-66
2022/11/21 08:25:07;;;;;;;;;30.00;21.50;;;;;7.17;83.35;99974.25;5030850;28;45679;-65
2022/11/21 08:27:33;;;;;;;;;17.25;16.75;;;;;7.21;83.96;99969.06;5031081;28;45736;-66
2022/11/21 08:29:58;;;;;;;;;23.75;19.25;;;;;7.29;83.71;99965.59;5030579;28;45878;-65
2022/11/21 08:32:24;;;;;;;;;30.75;25.75;;;;;7.11;84.05;99948.16;5028726;28;45621;-65
2022/11/21 08:34:50;;;;;;;;;24.25;18.25;;;;;7.22;83.81;99962.09;5031828;28;45426;-64
2022/11/21 08:37:16;;;;;;;;;24.00;22.00;;;;;7.36;84.10;99975.16;5030438;28;45639;-67
2022/11/21 08:39:41;;;;;;;;;21.00;16.75;;;;;7.33;83.54;99964.72;5030159;28;45770;-68
2022/11/21 08:42:07;;;;;;;;;22.75;20.75;;;;;7.40;83.72;99969.09;5031394;28;45491;-71
2022/11/21 08:44:33;;;;;;;;;24.50;20.00;;;;;7.40;83.37;99961.25;5031234;28;45393;-68
2022/11/21 08:47:00;;;;;;;;;23.00;18.75;;;;;7.44;83.29;99960.41;5030715;28;45361;-67
2022/11/21 08:49:27;;;;;;;;;24.50;19.50;;;;;7.47;83.27;99969.97;5031979;28;45351;-71
2022/11/21 08:51:53;;;;;;;;;29.25;19.00;;;;;7.42;82.98;99951.72;5032863;28;45784;-69
2022/11/21 08:54:21;;;;;;;;;17.50;14.25;;;;;7.50;82.91;99960.44;5031184;28;45544;-68
2022/11/21 08:56:47;;;;;;;;;27.50;16.25;;;;;7.42;83.82;99947.38;5031435;28;46433;-65
2022/11/21 08:59:12;;;;;;;;;20.50;17.50;;;;;7.43;83.50;99943.91;5034659;28;45936;-66
2022/11/21 09:01:38;;;;;;;;;20.75;16.25;;;;;7.41;83.88;99923.94;5033675;28;45945;-67
2022/11/21 09:04:04;;;;;;;;;16.25;13.00;;;;;7.52;83.18;99918.72;5030323;28;45512;-66
2022/11/21 09:06:30;;;;;;;;;19.75;15.50;;;;;7.46;83.04;99888.34;5032337;28;45488;-66
2022/11/21 09:08:56;;;;;;;;;22.25;17.50;;;;;7.38;83.09;99861.38;5035630;28;46039;-67
2022/11/21 09:11:23;;;;;;;;;19.00;14.25;;;;;7.47;83.20;99868.34;5032261;28;45525;-66
2022/11/21 09:18:01;;;;;;;;;19.50;13.00;;;;;7.48;82.85;99872.72;5032097;28;45383;-67
2022/11/21 09:19:20;;;;;;;;;20.50;17.00;;;;;7.73;82.83;99886.59;5034916;28;45493;-66
2022/11/21 09:21:48;;;;;;;;;16.00;13.25;;;;;7.69;82.93;99901.41;5037995;28;45379;-66
2022/11/21 09:24:13;;;;;;;;;18.00;13.25;;;;;7.74;82.85;99885.75;5036370;28;45410;-66
2022/11/21 09:26:39;;;;;;;;;22.25;12.00;;;;;7.74;82.69;99875.34;5035335;28;45887;-64
2022/11/21 09:29:04;;;;;;;;;20.00;10.75;;;;;7.78;82.48;99856.19;5036858;28;45370;-65
2022/11/21 09:31:30;;;;;;;;;18.25;15.25;;;;;7.75;82.29;99848.38;5036347;28;45501;-66
2022/11/21 09:33:56;;;;;;;;;18.75;14.00;;;;;7.80;82.50;99849.25;5035163;28;45347;-67
2022/11/21 09:36:22;;;;;;;;;16.75;11.50;;;;;7.75;82.43;99832.75;5035370;28;45764;-67
2022/11/21 09:38:50;;;;;;;;;17.50;13.25;;;;;7.73;82.28;99827.50;5035215;28;45523;-64
2022/11/21 09:44:44;;;;;;;;;15.25;13.00;;;;;7.63;82.98;99817.97;5035337;28;45346;-66
2022/11/21 09:47:20;;;;;;;;;17.25;12.50;;;;;7.58;83.36;99796.28;5034244;28;45614;-67
2022/11/21 09:49:52;;;;;;;;;17.75;15.75;;;;;7.58;83.04;99799.75;5025407;28;45544;-66
2022/11/21 09:52:24;;;;;;;;;9.00;9.00;;;;;7.58;83.27;99781.50;5034981;28;45492;-65
2022/11/21 09:54:57;;;;;;;;;15.50;12.50;;;;;7.47;82.91;99741.53;5037131;28;45426;-69
2022/11/21 09:57:24;;;;;;;;;14.50;10.00;;;;;7.60;83.20;99756.31;5037851;28;45958;-69
2022/11/21 09:59:51;;;;;;;;;14.00;11.50;;;;;7.59;84.14;99754.59;5039325;28;45447;-65
2022/11/21 10:02:20;;;;;;;;;15.00;11.50;;;;;7.58;83.26;99738.94;5039167;28;45610;-66
2022/11/21 10:04:47;;;;;;;;;13.75;11.00;;;;;7.71;83.05;99739.78;5037402;28;45584;-67
2022/11/21 10:07:34;;;;;;;;;13.50;9.75;;;;;7.75;83.07;99733.69;5033918;28;46100;-67
2022/11/21 10:10:11;;;;;;;;;12.75;10.00;;;;;7.64;83.12;99711.13;5036529;28;45681;-68
2022/11/21 10:12:55;;;;;;;;;18.50;11.25;;;;;7.80;82.66;99706.72;5038748;28;45584;-66
2022/11/21 10:16:09;;;;;;;;;17.25;11.50;;;;;7.79;82.75;99694.56;5039471;28;45248;-65
2022/11/21 10:19:12;;;;;;;;;13.50;9.25;;;;;7.93;82.09;99685.84;5036506;28;45381;-70
2022/11/21 10:21:41;;;;;;;;;16.25;12.00;;;;;7.97;82.18;99678.00;5037005;28;45503;-67
2022/11/21 10:24:33;;;;;;;;;13.75;10.50;;;;;8.05;81.44;99675.38;5035748;28;45232;-68
2022/11/21 10:27:10;;;;;;;;;13.25;10.25;;;;;8.08;81.34;99678.81;5024738;28;45573;-68
2022/11/21 10:29:41;;;;;;;;;9.50;8.50;;;;;8.11;80.92;99656.19;5031278;28;46287;-67
2022/11/21 10:32:25;;;;;;;;;8.75;6.75;;;;;8.15;80.96;99647.50;5032936;28;45461;-65
2022/11/21 10:34:57;;;;;;;;;10.75;8.25;;;;;7.93;80.66;99595.47;5036047;28;45781;-64
2022/11/21 10:37:37;;;;;;;;;12.75;8.25;;;;;8.12;81.15;99639.69;5037475;28;45505;-68
2022/11/21 10:40:29;;;;;;;;;10.50;7.00;;;;;7.95;81.17;99614.56;5033578;28;46053;-65
2022/11/21 10:46:07;;;;;;;;;10.00;7.25;;;;;8.18;81.07;99632.66;5033657;28;45666;-66
2022/11/21 10:48:35;;;;;;;;;9.00;7.00;;;;;8.25;81.06;99623.06;5038997;28;45654;-68
2022/11/21 10:51:24;;;;;;;;;13.50;10.00;;;;;8.25;80.94;99603.06;5035487;28;45343;-65
2022/11/21 10:54:31;;;;;;;;;8.75;7.75;;;;;8.20;81.64;99575.28;5029990;28;45395;-65
2022/11/21 10:57:14;;;;;;;;;13.00;8.50;;;;;8.27;80.82;99579.59;5033122;28;45489;-67
2022/11/21 10:59:40;;;;;;;;;9.75;9.25;;;;;8.22;80.81;99570.94;5028140;28;45509;-68
2022/11/21 11:02:12;;;;;;;;;11.00;9.00;;;;;8.26;80.68;99578.72;5032775;28;45879;-65
2022/11/21 11:04:37;;;;;;;;;8.75;6.25;;;;;8.28;80.84;99576.09;5032865;28;45566;-67
2022/11/21 11:07:27;;;;;;;;;7.75;6.25;;;;;8.36;80.65;99574.31;5034981;28;45532;-66
2022/11/21 11:10:13;;;;;;;;;8.50;6.75;;;;;8.40;80.10;99565.63;5038373;28;45503;-66
2022/11/21 11:13:40;;;;;;;;;6.50;4.25;;;;;8.36;80.23;99550.81;5037135;28;46064;-65
2022/11/21 11:15:38;;;;;;;;;14.50;8.00;;;;;8.38;79.85;99559.50;5021861;28;45674;-65
2022/11/21 11:18:05;;;;;;;;;8.00;6.00;;;;;8.37;79.87;99549.06;5033345;28;45851;-66
2022/11/21 11:20:40;;;;;;;;;12.50;6.75;;;;;8.34;80.21;99547.34;5034310;28;45376;-66
2022/11/21 11:23:18;;;;;;;;;14.25;8.25;;;;;8.38;79.88;99519.50;5032219;28;46090;-67
2022/11/21 11:25:50;;;;;;;;;11.00;6.75;;;;;8.37;80.23;99522.97;5034003;28;45848;-66
2022/11/21 11:28:19;;;;;;;;;11.00;8.50;;;;;8.27;79.99;99506.53;5037341;28;45759;-66
2022/11/21 11:30:48;;;;;;;;;11.75;9.75;;;;;8.38;79.78;99504.72;5036052;28;45749;-66
2022/11/21 11:33:29;;;;;;;;;12.00;6.25;;;;;8.45;79.90;99505.56;5036670;28;46249;-65
2022/11/21 11:36:01;;;;;;;;;7.50;5.25;;;;;8.46;79.84;99502.06;5037141;28;45489;-68
2022/11/21 11:38:30;;;;;;;;;9.00;8.25;;;;;8.43;79.97;99486.44;5037575;28;45477;-68
2022/11/21 11:41:03;;;;;;;;;13.25;8.50;;;;;8.43;79.74;99474.25;5037218;28;45548;-69
2022/11/21 11:47:32;;;;;;;;;12.75;6.25;;;;;8.61;79.34;99448.84;5023357;28;45533;-69
2022/11/21 11:50:11;;;;;;;;;11.00;8.00;;;;;8.48;79.29;99427.25;5026216;28;45772;-66
2022/11/21 11:53:08;;;;;;;;;17.25;8.25;;;;;8.41;79.53;99421.22;5034170;28;45338;-66
2022/11/21 11:55:55;;;;;;;;;16.25;8.75;;;;;8.41;80.14;99399.50;5034194;28;46189;-67
2022/11/21 11:58:28;;;;;;;;;12.50;11.25;;;;;8.46;79.79;99387.25;5036759;28;45573;-67
2022/11/21 12:01:03;;;;;;;;;13.75;11.75;;;;;8.52;79.55;99362.81;5037149;28;45461;-69